Time;durP1;ratioP1;P1;durP2;ratioP2;P2;SDS_P1;SDS_P2;PMS_P1;PMS_P2;Temp;Humidity;BMP_temperature;BMP_pressure;BME280_temperature;BME280_humidity;BME280_pressure;Samples;Min_cycle;Max_cycle;Signal;HPM_P1;HPM_P2
2022/06/19 00:00:08;;;;;;;5.38;3.20;;;14.00;99.90;14.00;98355.00;;;;4982561;28;87854;-60
2022/06/19 00:02:40;;;;;;;10.48;3.38;;;14.10;99.90;14.00;98354.00;;;;4978043;28;88627;-60
2022/06/19 00:05:08;;;;;;;8.57;3.15;;;14.00;99.90;14.00;98341.00;;;;4980669;28;86936;-60
2022/06/19 00:07:35;;;;;;;9.82;3.60;;;14.10;99.90;14.10;98335.00;;;;4982993;28;86980;-60
2022/06/19 00:10:03;;;;;;;7.47;3.13;;;14.10;99.90;14.10;98335.00;;;;4982574;28;87681;-59
2022/06/19 00:12:29;;;;;;;11.43;3.10;;;14.10;99.90;14.10;98337.00;;;;4982708;28;88086;-60
2022/06/19 00:14:55;;;;;;;6.30;3.50;;;14.10;99.90;14.20;98336.00;;;;4982555;28;87244;-60
2022/06/19 00:17:22;;;;;;;7.35;3.75;;;14.20;99.90;14.20;98326.00;;;;4982856;28;87003;-60
2022/06/19 00:19:48;;;;;;;8.13;3.25;;;14.20;99.90;14.20;98325.00;;;;4981442;28;88533;-60
2022/06/19 00:22:14;;;;;;;4.50;2.83;;;14.20;99.90;14.20;98324.00;;;;4981991;28;89358;-59
2022/06/19 00:24:40;;;;;;;7.55;3.40;;;14.20;99.90;14.30;98321.00;;;;4982202;28;87050;-60
2022/06/19 00:27:06;;;;;;;6.80;3.47;;;14.20;99.90;14.30;98313.00;;;;4965687;28;87020;-60
2022/06/19 00:29:32;;;;;;;6.25;3.10;;;14.20;99.90;14.30;98302.00;;;;4982595;28;87594;-60
2022/06/19 00:31:59;;;;;;;8.07;3.05;;;14.20;99.90;14.30;98308.00;;;;4982117;28;87266;-60
2022/06/19 00:34:25;;;;;;;10.85;2.95;;;14.30;99.90;14.30;98305.00;;;;4982722;28;86932;-59
2022/06/19 00:36:51;;;;;;;8.57;3.13;;;14.30;99.90;14.40;98300.00;;;;4982859;28;86402;-60
2022/06/19 00:39:20;;;;;;;4.95;3.08;;;14.30;99.90;14.40;98305.00;;;;4982198;28;87534;-60
2022/06/19 00:41:47;;;;;;;4.00;2.88;;;14.30;99.90;14.30;98304.00;;;;4981274;28;87377;-60
2022/06/19 00:44:16;;;;;;;6.72;2.78;;;14.30;99.90;14.30;98309.00;;;;4980387;28;88009;-60
2022/06/19 00:47:06;;;;;;;10.00;3.45;;;14.30;99.90;14.30;98305.00;;;;4981840;28;87462;-60
2022/06/19 00:49:46;;;;;;;7.32;3.15;;;14.30;99.90;14.30;98308.00;;;;4981182;28;88708;-59
2022/06/19 00:52:30;;;;;;;4.50;2.85;;;14.30;99.90;14.30;98307.00;;;;4968194;28;87434;-60
2022/06/19 00:55:00;;;;;;;5.43;2.85;;;14.30;99.90;14.30;98301.00;;;;4971253;28;87042;-60
2022/06/19 00:57:30;;;;;;;8.18;3.30;;;14.30;99.90;14.30;98304.00;;;;4966865;28;88066;-60
2022/06/19 01:00:11;;;;;;;6.85;3.15;;;14.30;99.90;14.30;98297.00;;;;4966400;28;87907;-60
2022/06/19 01:02:40;;;;;;;4.35;3.00;;;14.20;99.90;14.20;98302.00;;;;4980672;28;87369;-60
2022/06/19 01:05:10;;;;;;;6.38;3.50;;;14.20;99.90;14.20;98293.00;;;;4981729;28;87526;-59
2022/06/19 01:07:37;;;;;;;12.50;4.47;;;14.10;99.90;14.20;98289.00;;;;4964397;28;87032;-59
2022/06/19 01:10:04;;;;;;;7.95;3.00;;;14.10;99.90;14.20;98293.00;;;;4964324;28;88579;-60
2022/06/19 01:12:31;;;;;;;13.95;3.95;;;14.10;99.90;14.20;98293.00;;;;4981802;28;88319;-60
2022/06/19 01:15:03;;;;;;;6.40;3.20;;;14.10;99.90;14.20;98290.00;;;;4981908;28;87037;-60
2022/06/19 01:17:33;;;;;;;7.70;3.60;;;14.20;99.90;14.30;98285.00;;;;4964378;28;87446;-60
2022/06/19 01:20:04;;;;;;;6.65;2.90;;;14.20;99.90;14.30;98282.00;;;;4963975;28;87672;-59
2022/06/19 01:22:44;;;;;;;8.18;3.67;;;14.20;99.90;14.40;98282.00;;;;4963825;28;88431;-60
2022/06/19 01:25:17;;;;;;;4.45;2.72;;;14.30;99.90;14.40;98288.00;;;;4966960;28;87199;-59
2022/06/19 01:30:35;;;;;;;4.93;2.90;;;14.40;99.90;14.50;98275.00;;;;4965980;28;88738;-60
2022/06/19 01:33:08;;;;;;;6.82;3.13;;;14.40;99.90;14.50;98269.00;;;;4980543;28;87361;-59
2022/06/19 01:35:37;;;;;;;4.28;3.00;;;14.40;99.90;14.50;98279.00;;;;4980605;28;87809;-59
2022/06/19 01:38:11;;;;;;;5.95;2.95;;;14.40;99.90;14.50;98274.00;;;;4964347;28;87101;-60
2022/06/19 01:40:40;;;;;;;6.40;3.00;;;14.50;99.90;14.60;98272.00;;;;4981848;28;87671;-60
2022/06/19 01:43:06;;;;;;;7.93;3.20;;;14.60;99.90;14.70;98268.00;;;;4964020;28;87462;-59
2022/06/19 01:45:32;;;;;;;6.10;3.08;;;14.60;99.90;14.70;98278.00;;;;4981767;28;86893;-60
2022/06/19 01:48:00;;;;;;;8.35;2.85;;;14.70;99.90;14.80;98280.00;;;;4964490;28;87017;-59
2022/06/19 01:50:30;;;;;;;6.25;3.00;;;14.70;99.90;14.80;98291.00;;;;4981002;28;87475;-60
2022/06/19 01:53:19;;;;;;;8.70;2.97;;;14.70;99.90;14.90;98269.00;;;;4980520;28;88460;-60
2022/06/19 01:55:46;;;;;;;9.15;3.05;;;14.70;99.90;14.90;98274.00;;;;4979652;28;87073;-60
2022/06/19 01:58:13;;;;;;;8.55;2.88;;;14.80;99.90;15.00;98258.00;;;;4980933;28;87634;-60
2022/06/19 02:00:43;;;;;;;8.43;3.00;;;14.90;99.90;15.00;98262.00;;;;4980566;28;88671;-60
2022/06/19 02:03:16;;;;;;;7.07;3.10;;;14.90;99.90;15.00;98266.00;;;;4980588;28;89376;-60
2022/06/19 02:05:43;;;;;;;10.45;3.45;;;14.90;99.90;15.00;98265.00;;;;4979857;28;86935;-60
2022/06/19 02:08:11;;;;;;;5.75;2.58;;;14.90;99.90;15.10;98265.00;;;;4980988;28;86967;-60
2022/06/19 02:10:40;;;;;;;6.28;3.08;;;15.00;99.90;15.20;98266.00;;;;4981455;28;87667;-60
2022/06/19 02:13:09;;;;;;;6.45;2.78;;;15.00;99.90;15.20;98261.00;;;;4975321;28;87749;-60
2022/06/19 02:15:36;;;;;;;9.63;3.08;;;15.10;99.90;15.20;98261.00;;;;4980151;28;86942;-60
2022/06/19 02:18:05;;;;;;;7.30;3.25;;;15.10;99.90;15.30;98256.00;;;;4981294;28;86734;-59
2022/06/19 02:20:31;;;;;;;4.38;2.60;;;15.20;99.90;15.40;98253.00;;;;4978412;28;88081;-60
2022/06/19 02:23:00;;;;;;;6.60;3.17;;;15.30;99.90;15.50;98255.00;;;;4980862;28;87283;-60
2022/06/19 02:25:26;;;;;;;8.75;3.10;;;15.40;99.90;15.70;98246.00;;;;4971205;28;88159;-60
2022/06/19 02:27:53;;;;;;;10.27;3.13;;;15.50;99.90;15.70;98243.00;;;;4959858;28;87418;-59
2022/06/19 02:30:19;;;;;;;6.68;2.80;;;15.50;99.90;15.80;98251.00;;;;4962358;28;87668;-60
2022/06/19 02:32:49;;;;;;;9.07;3.58;;;15.60;99.90;15.70;98249.00;;;;4963691;28;87669;-60
2022/06/19 02:35:20;;;;;;;10.27;3.45;;;15.50;99.90;15.70;98252.00;;;;4963471;28;86974;-60
2022/06/19 02:37:50;;;;;;;6.00;3.30;;;15.50;99.90;15.70;98247.00;;;;4996445;28;87689;-60
2022/06/19 02:40:56;;;;;;;8.13;2.67;;;15.50;99.90;15.70;98234.00;;;;4981435;28;88235;-60
2022/06/19 02:43:31;;;;;;;7.75;2.97;;;15.50;99.90;15.80;98239.00;;;;4983236;28;87104;-60
2022/06/19 02:45:57;;;;;;;8.85;2.78;;;15.60;99.90;15.80;98239.00;;;;4984283;28;87308;-60
2022/06/19 02:48:30;;;;;;;5.35;2.85;;;15.70;99.90;15.80;98237.00;;;;4984359;28;87026;-59
2022/06/19 02:50:58;;;;;;;7.47;2.63;;;15.70;99.90;15.80;98237.00;;;;4981154;28;88549;-60
2022/06/19 02:53:25;;;;;;;7.63;3.08;;;15.60;99.90;15.90;98227.00;;;;4982639;28;88356;-60
2022/06/19 02:55:52;;;;;;;7.32;2.70;;;15.70;99.90;16.00;98228.00;;;;4978448;28;86992;-60
2022/06/19 02:58:19;;;;;;;7.85;2.67;;;15.80;99.90;16.10;98215.00;;;;4983891;28;86954;-60
2022/06/19 03:00:48;;;;;;;5.35;2.40;;;15.90;99.90;16.20;98220.00;;;;4983462;28;89368;-60
2022/06/19 03:03:29;;;;;;;7.55;2.35;;;16.00;99.90;16.40;98215.00;;;;4982883;28;88795;-60
2022/06/19 03:05:55;;;;;;;6.57;2.70;;;16.20;99.90;16.60;98217.00;;;;4981487;28;87223;-60
2022/06/19 03:08:21;;;;;;;4.85;2.80;;;16.40;99.90;16.80;98216.00;;;;4983780;28;86585;-58
2022/06/19 03:10:48;;;;;;;6.85;2.30;;;16.60;99.90;17.00;98213.00;;;;4983662;28;87500;-60
2022/06/19 03:13:18;;;;;;;12.68;2.85;;;16.70;99.90;17.00;98224.00;;;;4983375;28;87462;-60
2022/06/19 03:15:45;;;;;;;9.93;2.70;;;16.80;99.90;17.10;98214.00;;;;4982483;28;87868;-60
2022/06/19 03:18:11;;;;;;;5.47;2.80;;;16.80;99.90;17.10;98214.00;;;;4983321;28;87089;-60
2022/06/19 03:20:37;;;;;;;7.88;2.53;;;16.80;99.90;17.20;98208.00;;;;4983530;28;87215;-60
2022/06/19 03:23:03;;;;;;;9.35;2.40;;;16.90;99.90;17.40;98214.00;;;;4982901;28;88543;-60
2022/06/19 03:25:29;;;;;;;7.65;2.78;;;17.10;99.90;17.70;98203.00;;;;4983493;28;87260;-60
2022/06/19 03:27:57;;;;;;;10.10;2.90;;;17.40;99.90;17.90;98193.00;;;;4983618;28;86992;-59
2022/06/19 03:30:23;;;;;;;3.95;2.20;;;17.60;99.90;18.10;98193.00;;;;4983294;28;87813;-60
2022/06/19 03:32:49;;;;;;;6.07;2.40;;;17.80;99.90;18.20;98186.00;;;;4983978;28;86254;-60
2022/06/19 03:35:17;;;;;;;8.02;2.50;;;17.90;99.90;18.40;98181.00;;;;4965612;28;87081;-60
2022/06/19 03:37:43;;;;;;;7.28;1.98;;;18.00;99.90;18.50;98180.00;;;;4982917;28;87091;-60
2022/06/19 03:40:10;;;;;;;7.63;2.35;;;18.10;99.90;18.70;98177.00;;;;4982513;28;89461;-60
2022/06/19 03:42:37;;;;;;;4.05;2.05;;;18.40;99.90;19.10;98168.00;;;;4982503;28;88291;-60
2022/06/19 03:45:04;;;;;;;2.35;1.70;;;18.80;99.90;19.80;98163.00;;;;4983539;28;86896;-60
2022/06/19 03:47:30;;;;;;;7.07;2.22;;;19.40;99.90;20.20;98177.00;;;;4983499;28;87134;-60
2022/06/19 03:49:57;;;;;;;3.75;2.15;;;19.70;99.90;19.90;98182.00;;;;4982339;28;87636;-60
2022/06/19 03:52:23;;;;;;;2.90;1.90;;;19.50;99.90;19.50;98176.00;;;;4982361;28;87137;-60
2022/06/19 03:54:49;;;;;;;4.72;2.20;;;19.20;99.90;19.50;98159.00;;;;4965103;28;87065;-59
2022/06/19 03:57:15;;;;;;;6.28;2.42;;;19.10;99.90;19.70;98164.00;;;;4982892;28;86171;-60
2022/06/19 03:59:41;;;;;;;6.60;2.30;;;19.40;99.90;20.30;98178.00;;;;4982296;28;88801;-60
2022/06/19 04:02:10;;;;;;;3.17;2.30;;;19.80;99.90;20.70;98166.00;;;;4982127;28;87590;-60
2022/06/19 04:04:39;;;;;;;4.45;2.33;;;20.10;99.90;20.30;98165.00;;;;4975327;28;88004;-60
2022/06/19 04:07:07;;;;;;;4.55;1.88;;;19.90;99.90;20.10;98156.00;;;;4982491;28;87096;-60
2022/06/19 04:09:34;;;;;;;5.68;2.70;;;19.70;99.90;20.00;98156.00;;;;4982529;28;87757;-60
2022/06/19 04:12:00;;;;;;;4.72;2.00;;;19.60;99.90;19.90;98162.00;;;;4982476;28;87011;-60
2022/06/19 04:14:26;;;;;;;5.15;2.30;;;19.50;99.90;19.90;98152.00;;;;4982943;28;87133;-60
2022/06/19 04:16:52;;;;;;;6.70;2.35;;;19.50;99.90;20.00;98161.00;;;;4982591;28;87106;-58
2022/06/19 04:19:18;;;;;;;3.70;2.15;;;19.60;99.90;20.20;98152.00;;;;4982439;28;88280;-58
2022/06/19 04:21:45;;;;;;;2.72;2.00;;;19.70;99.90;20.20;98137.00;;;;4982196;28;87355;-58
2022/06/19 04:24:17;;;;;;;4.05;1.90;;;19.80;99.90;20.50;98151.00;;;;4982188;28;87598;-58
2022/06/19 04:26:43;;;;;;;6.85;2.65;;;20.10;99.90;20.80;98152.00;;;;4982678;28;86951;-58
2022/06/19 04:29:12;;;;;;;4.13;2.00;;;20.30;99.90;20.60;98153.00;;;;4981889;28;88497;-58
2022/06/19 04:31:38;;;;;;;6.25;1.80;;;20.10;99.90;20.40;98142.00;;;;4964601;28;89361;-58
2022/06/19 04:34:04;;;;;;;5.50;1.92;;;20.00;99.90;20.40;98153.00;;;;4965031;28;87056;-58
2022/06/19 04:36:31;;;;;;;4.05;1.90;;;20.00;99.90;20.40;98152.00;;;;4982101;28;87433;-59
2022/06/19 04:38:59;;;;;;;4.35;1.95;;;20.00;99.90;20.60;98151.00;;;;4982106;28;87862;-58
2022/06/19 04:41:38;;;;;;;3.85;1.77;;;20.10;99.90;20.60;98153.00;;;;4982219;28;88921;-58
2022/06/19 04:44:09;;;;;;;3.40;1.77;;;20.10;99.90;20.60;98146.00;;;;4981525;28;86991;-58
2022/06/19 04:46:35;;;;;;;4.65;1.98;;;20.10;99.90;20.60;98148.00;;;;4982351;28;86316;-58
2022/06/19 04:49:01;;;;;;;3.38;1.85;;;20.20;99.90;20.60;98150.00;;;;4981467;28;88695;-58
2022/06/19 04:51:28;;;;;;;4.03;1.92;;;20.20;99.90;20.60;98152.00;;;;4981547;28;87523;-58
2022/06/19 04:53:54;;;;;;;8.25;2.40;;;20.20;99.90;20.80;98149.00;;;;4962682;28;88368;-58
2022/06/19 04:56:21;;;;;;;4.60;1.83;;;20.30;99.90;20.80;98137.00;;;;4964178;28;87585;-58
2022/06/19 04:58:49;;;;;;;3.50;2.05;;;20.30;99.90;20.90;98135.00;;;;4981437;28;87562;-59
2022/06/19 05:01:27;;;;;;;3.90;2.35;;;20.40;99.90;21.00;98139.00;;;;4980993;28;88453;-58
2022/06/19 05:03:57;;;;;;;6.30;1.80;;;20.50;99.90;21.00;98122.00;;;;4977792;28;86968;-58
2022/06/19 05:06:24;;;;;;;5.72;2.13;;;20.50;99.90;20.90;98124.00;;;;4980001;28;87582;-59
2022/06/19 05:08:51;;;;;;;3.15;1.58;;;20.40;99.90;21.00;98125.00;;;;4981213;28;88845;-58
2022/06/19 05:11:18;;;;;;;4.97;2.00;;;20.50;99.90;21.20;98124.00;;;;4981700;28;86482;-58
2022/06/19 05:13:44;;;;;;;5.35;2.00;;;20.80;99.90;21.90;98120.00;;;;4964132;28;87153;-58
2022/06/19 05:16:15;;;;;;;7.47;2.13;;;21.40;99.90;22.70;98124.00;;;;4964173;28;87084;-60
2022/06/19 05:18:42;;;;;;;7.28;2.40;;;22.00;99.90;23.40;98120.00;;;;4980544;28;88749;-60
2022/06/19 05:21:10;;;;;;;4.32;2.03;;;22.60;99.90;24.20;98120.00;;;;4981445;28;88437;-58
2022/06/19 05:23:40;;;;;;;4.75;1.80;;;23.30;99.90;23.80;98124.00;;;;4981250;28;87171;-58
2022/06/19 05:26:16;;;;;;;11.27;2.00;;;22.90;99.90;23.40;98127.00;;;;4948171;28;86981;-58
2022/06/19 05:28:44;;;;;;;4.95;1.80;;;22.50;99.90;22.70;98120.00;;;;4964254;28;87866;-57
2022/06/19 05:31:10;;;;;;;4.65;1.80;;;22.00;99.90;22.70;98132.00;;;;4964384;28;87437;-58
2022/06/19 05:33:37;;;;;;;4.30;1.88;;;22.00;99.90;22.80;98118.00;;;;4981829;28;87098;-58
2022/06/19 05:36:04;;;;;;;5.72;1.92;;;22.00;99.90;22.20;98129.00;;;;4981300;28;86258;-60
2022/06/19 05:38:30;;;;;;;3.88;1.70;;;21.50;99.90;21.80;98121.00;;;;4981454;28;88497;-60
2022/06/19 05:40:59;;;;;;;4.93;1.92;;;21.30;99.90;21.60;98123.00;;;;4981360;28;88529;-58
2022/06/19 05:43:28;;;;;;;7.50;2.15;;;21.10;99.90;21.70;98127.00;;;;4980978;28;88310;-58
2022/06/19 05:46:16;;;;;;;5.32;1.90;;;21.20;99.90;22.20;98113.00;;;;4963667;28;87063;-60
2022/06/19 05:48:43;;;;;;;6.80;2.10;;;21.70;99.90;22.50;98122.00;;;;4964013;28;87720;-60
2022/06/19 05:51:15;;;;;;;5.50;1.52;;;21.90;99.90;22.80;98097.00;;;;4963547;28;88486;-60
2022/06/19 05:53:45;;;;;;;4.50;1.70;;;22.10;99.90;22.70;98108.00;;;;4976823;28;86964;-60
2022/06/19 05:56:12;;;;;;;3.88;1.73;;;22.10;99.90;22.50;98115.00;;;;4981042;28;87064;-60
2022/06/19 05:58:39;;;;;;;3.20;1.90;;;21.90;99.90;22.00;98108.00;;;;4980981;28;87002;-60
2022/06/19 06:01:06;;;;;;;5.55;2.10;;;21.40;99.90;22.00;98095.00;;;;4981078;28;87364;-60
2022/06/19 06:03:32;;;;;;;3.78;2.00;;;21.60;99.90;22.50;98099.00;;;;4980788;28;87400;-60
2022/06/19 06:06:05;;;;;;;3.97;1.88;;;22.00;99.90;23.10;98103.00;;;;4963307;28;87181;-60
2022/06/19 06:08:34;;;;;;;6.65;1.88;;;22.50;99.90;23.50;98098.00;;;;4980398;28;88695;-60
2022/06/19 06:11:00;;;;;;;5.18;1.63;;;22.80;99.90;23.30;98090.00;;;;4980812;28;89604;-60
2022/06/19 06:13:29;;;;;;;2.88;1.60;;;22.70;99.90;23.40;98098.00;;;;4980947;28;87527;-60
2022/06/19 06:15:56;;;;;;;4.78;2.00;;;22.70;99.90;23.60;98103.00;;;;4981014;28;87368;-60
2022/06/19 06:18:22;;;;;;;5.47;1.77;;;22.80;99.90;23.40;98097.00;;;;4984344;28;87693;-60
2022/06/19 06:21:00;;;;;;;5.07;1.55;;;22.70;99.90;23.40;98087.00;;;;4984196;28;87099;-60
2022/06/19 06:23:28;;;;;;;8.20;1.70;;;22.70;99.90;23.40;98091.00;;;;4983815;28;87108;-60
2022/06/19 06:26:04;;;;;;;5.70;1.73;;;22.70;99.90;23.70;98094.00;;;;4983948;28;86327;-60
2022/06/19 06:28:32;;;;;;;5.15;1.52;;;23.00;99.90;23.90;98077.00;;;;4984552;28;87909;-60
2022/06/19 06:30:59;;;;;;;6.05;1.45;;;23.20;99.90;23.40;98074.00;;;;4984049;28;87372;-60
2022/06/19 06:33:26;;;;;;;2.25;1.45;;;22.50;99.90;23.10;98071.00;;;;4983955;28;88520;-60
2022/06/19 06:35:52;;;;;;;3.58;1.83;;;22.50;99.90;22.80;98076.00;;;;4983864;28;87154;-60
2022/06/19 06:38:19;;;;;;;5.35;1.73;;;22.20;99.90;22.60;98062.00;;;;4981276;28;87593;-60
2022/06/19 06:40:45;;;;;;;4.20;1.40;;;22.00;99.90;22.00;98064.00;;;;4984327;28;87895;-60
2022/06/19 06:43:11;;;;;;;6.50;2.10;;;21.50;99.90;21.70;98076.00;;;;4983821;28;86907;-60
2022/06/19 06:45:38;;;;;;;6.97;1.67;;;21.20;99.90;21.70;98086.00;;;;4984134;28;86990;-60
2022/06/19 06:48:05;;;;;;;5.68;1.83;;;21.20;99.90;21.60;98069.00;;;;4984180;28;87633;-60
2022/06/19 06:50:31;;;;;;;3.45;1.63;;;21.10;99.90;21.50;98076.00;;;;4983747;28;87325;-60
2022/06/19 06:52:57;;;;;;;5.18;1.80;;;21.00;99.90;21.60;98066.00;;;;4983110;28;87090;-60
2022/06/19 06:55:23;;;;;;;5.18;1.90;;;21.10;99.90;21.50;98064.00;;;;4983731;28;86988;-60
2022/06/19 06:57:49;;;;;;;3.95;2.15;;;21.00;99.90;21.70;98063.00;;;;4982907;28;88632;-60
2022/06/19 07:00:21;;;;;;;4.82;1.70;;;21.20;99.90;21.60;98061.00;;;;4982978;28;88856;-60
2022/06/19 07:02:47;;;;;;;4.55;1.63;;;21.10;99.90;21.60;98062.00;;;;4983405;28;87070;-59
2022/06/19 07:05:15;;;;;;;9.85;1.95;;;21.10;99.90;21.70;98064.00;;;;4983138;28;87106;-60
2022/06/19 07:07:41;;;;;;;5.00;1.73;;;21.20;99.90;21.90;98054.00;;;;4982600;28;88858;-60
2022/06/19 07:10:08;;;;;;;10.07;2.15;;;21.40;99.90;21.80;98052.00;;;;4982890;28;87259;-60
2022/06/19 07:12:35;;;;;;;3.22;1.50;;;21.30;99.90;21.80;98056.00;;;;4983473;28;87822;-60
2022/06/19 07:15:01;;;;;;;4.43;1.58;;;21.30;99.90;22.00;98039.00;;;;4983537;28;86153;-60
2022/06/19 07:17:27;;;;;;;5.30;1.70;;;21.50;99.90;22.10;98038.00;;;;4983550;28;87651;-60
2022/06/19 07:19:53;;;;;;;4.82;2.00;;;21.60;99.90;22.10;98031.00;;;;4982982;28;87233;-60
2022/06/19 07:22:20;;;;;;;4.60;1.92;;;21.60;99.90;22.20;98033.00;;;;4982612;28;87953;-60
2022/06/19 07:24:48;;;;;;;5.22;1.63;;;21.70;99.90;22.20;98031.00;;;;4983025;28;87068;-60
2022/06/19 07:27:15;;;;;;;7.28;1.83;;;21.70;99.90;22.20;98040.00;;;;4982679;28;88175;-60
2022/06/19 07:29:46;;;;;;;6.13;1.48;;;21.70;99.90;22.20;98027.00;;;;4982905;28;87373;-60
2022/06/19 07:32:13;;;;;;;5.70;1.40;;;21.70;99.90;22.00;98026.00;;;;4982956;28;87371;-60
2022/06/19 07:34:41;;;;;;;2.58;1.60;;;21.50;99.90;21.80;98026.00;;;;4983086;28;87007;-60
2022/06/19 07:37:09;;;;;;;2.25;1.30;;;21.30;99.90;21.50;98022.00;;;;4982511;28;87525;-60
2022/06/19 07:39:35;;;;;;;3.47;1.08;;;21.00;99.90;21.20;98017.00;;;;4983323;28;87072;-60
2022/06/19 07:42:04;;;;;;;3.42;1.58;;;20.80;99.90;21.10;97996.00;;;;4982955;28;86909;-60
2022/06/19 07:44:30;;;;;;;6.07;1.40;;;20.70;99.90;21.10;98000.00;;;;4982943;28;87020;-60
2022/06/19 07:52:25;;;;;;;2.78;1.33;;;21.20;99.90;21.80;98003.00;;;;4982113;28;87430;-60
2022/06/19 07:54:51;;;;;;;4.97;1.40;;;21.30;99.90;21.80;98007.00;;;;4982280;28;87482;-60
2022/06/19 07:57:17;;;;;;;5.28;1.55;;;21.40;99.90;21.90;98007.00;;;;4982108;28;88641;-60
2022/06/19 07:59:43;;;;;;;6.65;1.63;;;21.50;99.90;22.20;97988.00;;;;4982029;28;87556;-60
2022/06/19 08:02:09;;;;;;;12.80;1.50;;;21.80;99.90;22.60;97990.00;;;;4982407;28;87749;-60
2022/06/19 08:04:36;;;;;;;4.18;1.40;;;22.10;99.90;22.80;98000.00;;;;4982453;28;86449;-60
2022/06/19 08:07:02;;;;;;;6.75;1.77;;;22.30;99.90;22.90;98000.00;;;;4982193;28;87677;-60
2022/06/19 08:09:28;;;;;;;3.40;1.35;;;22.40;99.90;23.00;98002.00;;;;4982389;28;87309;-60
2022/06/19 08:11:54;;;;;;;10.68;2.78;;;22.50;99.90;22.80;97990.00;;;;4981752;28;87944;-60
2022/06/19 08:14:20;;;;;;;6.53;1.85;;;22.40;99.90;22.90;97986.00;;;;4982301;28;86962;-60
2022/06/19 08:16:46;;;;;;;7.78;1.60;;;22.60;99.90;22.80;97970.00;;;;4964222;28;88684;-60
2022/06/19 08:19:12;;;;;;;6.93;1.60;;;22.40;99.90;22.40;97986.00;;;;4981965;28;88446;-60
2022/06/19 08:21:38;;;;;;;2.80;1.50;;;22.00;99.90;22.30;97977.00;;;;4982029;28;87002;-60
2022/06/19 08:24:05;;;;;;;4.68;1.33;;;22.00;99.90;22.30;97979.00;;;;4981636;28;87020;-60
2022/06/19 08:26:31;;;;;;;9.13;2.20;;;21.90;99.90;22.20;97968.00;;;;4982038;28;88171;-60
2022/06/19 08:29:00;;;;;;;6.28;1.38;;;21.80;99.90;22.30;97962.00;;;;4982197;28;87542;-60
2022/06/19 08:31:28;;;;;;;5.00;1.38;;;22.00;99.90;22.40;97964.00;;;;4981761;28;87097;-60
2022/06/19 08:33:55;;;;;;;3.28;1.40;;;22.10;99.90;22.50;97959.00;;;;4981936;28;87025;-60
2022/06/19 08:36:22;;;;;;;5.32;1.80;;;22.20;99.90;22.50;97957.00;;;;4981054;28;88269;-60
2022/06/19 08:38:54;;;;;;;4.25;1.90;;;22.30;99.90;22.50;97945.00;;;;4972462;28;89622;-60
2022/06/19 08:41:55;;;;;;;6.13;1.70;;;22.30;99.90;22.60;97947.00;;;;4982315;28;86900;-60
2022/06/19 08:44:47;;;;;;;9.07;1.60;;;22.40;99.90;22.60;97946.00;;;;4980811;28;87087;-60
2022/06/19 08:47:55;;;;;;;6.00;1.90;;;22.40;99.90;22.50;97923.00;;;;4982178;28;87756;-60
2022/06/19 08:50:30;;;;;;;2.13;1.50;;;22.30;99.90;22.60;97918.00;;;;4979071;28;89045;-60
2022/06/19 08:53:35;;;;;;;10.13;1.70;;;22.40;99.90;22.70;97923.00;;;;4981131;28;87600;-60
2022/06/19 08:56:56;;;;;;;9.00;1.70;;;22.50;99.90;23.20;97918.00;;;;4979663;28;86974;-60
2022/06/19 08:59:35;;;;;;;4.67;1.80;;;22.90;99.90;23.50;97910.00;;;;4947429;28;87774;-60
2022/06/19 09:02:35;;;;;;;6.38;1.52;;;23.30;99.90;23.70;97907.00;;;;4977622;28;87084;-60
2022/06/19 09:08:42;;;;;;;6.70;1.83;;;23.60;99.90;23.90;97913.00;;;;4889632;28;88147;-60
2022/06/19 09:11:20;;;;;;;6.28;1.90;;;23.60;99.90;23.90;97910.00;;;;4883062;28;88864;-60
2022/06/19 09:14:11;;;;;;;5.35;1.40;;;23.60;99.90;24.00;97903.00;;;;4950520;28;87506;-59
2022/06/19 09:17:08;;;;;;;4.05;1.48;;;23.70;99.90;24.30;97892.00;;;;4982026;28;87611;-59
2022/06/19 09:20:14;;;;;;;3.85;1.55;;;24.00;99.90;24.30;97894.00;;;;4981187;28;87105;-59
2022/06/19 09:22:59;;;;;;;4.03;1.88;;;23.90;99.90;24.50;97904.00;;;;4976476;28;87663;-59
2022/06/19 09:25:44;;;;;;;4.15;1.70;;;24.10;99.90;24.70;97882.00;;;;4981434;28;87421;-59
2022/06/19 09:28:35;;;;;;;4.82;1.63;;;24.20;99.90;24.80;97875.00;;;;4981970;28;87098;-59
2022/06/19 09:31:24;;;;;;;8.30;1.73;;;24.40;99.90;24.90;97866.00;;;;4982014;28;86922;-59
2022/06/19 09:33:56;;;;;;;4.45;1.70;;;24.40;99.90;25.10;97879.00;;;;4980132;28;88627;-59
2022/06/19 09:36:44;;;;;;;4.60;1.65;;;24.60;99.90;24.90;97866.00;;;;4980974;28;88174;-58
2022/06/19 09:39:32;;;;;;;6.80;2.15;;;24.40;99.90;24.60;97874.00;;;;4981288;28;87154;-58
2022/06/19 09:42:24;;;;;;;3.33;1.90;;;24.20;99.90;24.80;97855.00;;;;4981789;28;86980;-58
2022/06/19 09:45:04;;;;;;;6.30;1.63;;;24.20;99.90;24.90;97855.00;;;;4961562;28;87772;-58
2022/06/19 09:47:36;;;;;;;10.02;2.05;;;24.30;99.90;25.00;97844.00;;;;4961543;28;87060;-59
2022/06/19 09:50:07;;;;;;;5.63;1.70;;;24.50;99.90;25.10;97849.00;;;;4970731;28;86923;-59
2022/06/19 09:52:41;;;;;;;8.25;1.65;;;24.50;99.90;25.00;97846.00;;;;4962678;28;86670;-59
2022/06/19 09:55:50;;;;;;;7.88;1.60;;;24.50;99.90;25.20;97839.00;;;;4977791;28;87750;-61
2022/06/19 09:59:03;;;;;;;3.05;1.70;;;24.70;99.90;25.20;97812.00;;;;4980888;28;87153;-59
2022/06/19 10:01:30;;;;;;;9.98;2.10;;;24.60;99.90;25.00;97815.00;;;;4949456;28;88140;-59
2022/06/19 10:04:17;;;;;;;6.95;2.28;;;24.50;99.90;25.00;97822.00;;;;4979891;28;87122;-61
2022/06/19 10:06:57;;;;;;;9.48;2.10;;;24.50;99.90;25.00;97810.00;;;;4953529;28;87046;-61
2022/06/19 10:09:29;;;;;;;8.55;1.98;;;24.50;99.90;25.10;97809.00;;;;4978235;28;89487;-58
2022/06/19 10:12:01;;;;;;;9.32;1.65;;;24.60;99.90;25.20;97809.00;;;;4963485;28;86938;-58
2022/06/19 10:14:44;;;;;;;7.57;1.60;;;24.60;99.90;25.10;97793.00;;;;4979981;28;86977;-58
2022/06/19 10:17:34;;;;;;;11.70;2.30;;;24.60;99.90;25.20;97801.00;;;;4979073;28;88913;-59
2022/06/19 10:20:21;;;;;;;14.10;2.53;;;24.80;99.90;25.30;97777.00;;;;4953474;28;88865;-59
2022/06/19 10:22:53;;;;;;;5.72;2.13;;;24.80;99.90;25.20;97785.00;;;;4963466;28;87195;-59
2022/06/19 10:25:47;;;;;;;5.78;1.70;;;24.80;99.90;25.40;97781.00;;;;4977130;28;87088;-59
2022/06/19 10:28:57;;;;;;;9.02;2.13;;;25.00;99.90;25.60;97772.00;;;;4979633;28;88655;-59
2022/06/19 10:32:06;;;;;;;7.30;2.10;;;25.20;99.90;25.40;97788.00;;;;4980375;28;88163;-59
2022/06/19 10:34:40;;;;;;;8.38;2.22;;;25.00;99.90;25.40;97766.00;;;;4980569;28;87525;-58
2022/06/19 10:37:41;;;;;;;7.85;1.92;;;25.00;99.90;25.40;97751.00;;;;4973380;28;87008;-58
2022/06/19 10:40:23;;;;;;;5.43;2.47;;;25.00;99.90;25.60;97762.00;;;;4977489;28;87781;-59
2022/06/19 10:43:18;;;;;;;6.70;1.77;;;25.10;99.90;25.30;97736.00;;;;4962659;28;87606;-58
2022/06/19 10:45:51;;;;;;;9.23;2.03;;;24.80;99.90;25.20;97725.00;;;;4972824;28;87012;-59
2022/06/19 10:48:57;;;;;;;6.88;2.05;;;24.80;99.90;25.30;97705.00;;;;4980780;28;86108;-61
2022/06/19 10:51:45;;;;;;;7.40;2.13;;;24.90;99.90;25.40;97713.00;;;;4962219;28;87627;-58
2022/06/19 10:55:07;;;;;;;5.05;2.08;;;24.90;99.90;25.70;97719.00;;;;4976425;28;87149;-60
2022/06/19 10:57:51;;;;;;;3.65;1.65;;;25.10;99.90;25.70;97712.00;;;;4938719;28;88913;-58
2022/06/19 11:00:17;;;;;;;6.70;1.80;;;25.20;99.90;25.70;97716.00;;;;4973985;28;87026;-59
2022/06/19 11:06:33;;;;;;;8.27;1.92;;;25.40;99.90;25.90;97719.00;;;;4980942;28;87984;-58
2022/06/19 11:09:09;;;;;;;13.77;1.90;;;25.30;99.90;25.80;97708.00;;;;4934582;28;87093;-59
2022/06/19 11:11:38;;;;;;;7.85;1.95;;;25.30;99.90;25.80;97714.00;;;;4966285;28;87021;-60
2022/06/19 11:14:31;;;;;;;4.43;1.73;;;25.30;99.90;25.60;97702.00;;;;4970264;28;88699;-61
2022/06/19 11:17:05;;;;;;;5.05;1.88;;;25.10;99.90;25.30;97721.00;;;;4972225;28;87587;-62
2022/06/19 11:19:45;;;;;;;4.45;1.77;;;24.80;99.90;25.10;97722.00;;;;4983572;28;87014;-62
2022/06/19 11:22:39;;;;;;;8.20;2.20;;;24.60;99.90;24.70;97730.00;;;;4983203;28;87487;-61
2022/06/19 11:25:20;;;;;;;10.10;1.83;;;24.20;99.90;24.60;97737.00;;;;4979302;28;89100;-60
2022/06/19 11:28:10;;;;;;;6.70;1.92;;;24.10;99.90;24.40;97751.00;;;;4953063;28;89281;-59
2022/06/19 11:30:41;;;;;;;10.52;2.40;;;24.00;99.90;24.40;97724.00;;;;4982513;28;86992;-59
2022/06/19 11:33:16;;;;;;;6.32;2.00;;;24.00;99.90;24.50;97730.00;;;;4983069;28;87022;-56